createdAt,value
2018-06-03T00:00:13.369Z,0
2018-06-03T00:00:53.868Z,0
2018-06-03T00:01:34.260Z,0
2018-06-03T00:02:14.662Z,0
2018-06-03T00:02:55.044Z,0
2018-06-03T00:03:35.436Z,0
2018-06-03T00:04:15.839Z,0
2018-06-03T00:04:56.277Z,0
2018-06-03T00:05:36.606Z,0
2018-06-03T00:06:17.005Z,0
2018-06-03T00:06:57.448Z,0
2018-06-03T00:07:37.879Z,0
2018-06-03T00:08:18.304Z,0
2018-06-03T00:08:58.678Z,0
2018-06-03T00:09:39.100Z,0
2018-06-03T00:10:19.472Z,0
2018-06-03T00:10:59.842Z,0
2018-06-03T00:11:40.318Z,0
2018-06-03T00:12:20.690Z,0
2018-06-03T00:13:01.061Z,0
2018-06-03T00:13:41.460Z,0
2018-06-03T00:14:21.858Z,0
2018-06-03T00:15:02.276Z,0
2018-06-03T00:15:42.681Z,0
2018-06-03T00:16:23.095Z,0
2018-06-03T00:17:03.551Z,0
2018-06-03T00:17:43.915Z,0
2018-06-03T00:18:24.299Z,0
2018-06-03T00:19:04.732Z,0
2018-06-03T00:19:45.117Z,0
2018-06-03T00:20:25.547Z,0
2018-06-03T00:21:05.914Z,0
2018-06-03T00:21:46.337Z,0
2018-06-03T00:22:26.767Z,0
2018-06-03T00:23:07.149Z,0
2018-06-03T00:23:47.515Z,0
2018-06-03T00:24:27.979Z,0
2018-06-03T00:25:08.336Z,0
2018-06-03T00:25:48.750Z,0
2018-06-03T00:26:29.164Z,0
2018-06-03T00:27:09.545Z,0
2018-06-03T00:27:50.002Z,0
2018-06-03T00:28:30.450Z,0
2018-06-03T00:29:10.808Z,0
2018-06-03T00:29:51.242Z,0
2018-06-03T00:30:31.636Z,0
2018-06-03T00:31:12.028Z,0
2018-06-03T00:31:52.475Z,0
2018-06-03T00:32:32.892Z,0
2018-06-03T00:33:13.290Z,0
2018-06-03T00:33:53.678Z,0
2018-06-03T00:34:34.064Z,0
2018-06-03T00:35:14.438Z,0
2018-06-03T00:35:54.864Z,0
2018-06-03T00:36:35.240Z,0
2018-06-03T00:37:15.666Z,0
2018-06-03T00:37:56.066Z,0
2018-06-03T00:38:36.408Z,0
2018-06-03T00:39:16.901Z,0
2018-06-03T00:39:57.316Z,0
2018-06-03T00:40:37.695Z,0
2018-06-03T00:41:18.065Z,0
2018-06-03T00:41:58.460Z,0
2018-06-03T00:42:38.879Z,0
2018-06-03T00:43:19.252Z,0
2018-06-03T00:43:59.671Z,0
2018-06-03T00:44:40.075Z,0
2018-06-03T00:45:20.516Z,0
2018-06-03T00:46:00.887Z,0
2018-06-03T00:46:41.263Z,0
2018-06-03T00:47:21.651Z,0
2018-06-03T00:48:02.049Z,0
2018-06-03T00:48:42.412Z,0
2018-06-03T00:49:22.844Z,0
2018-06-03T00:50:03.257Z,0
2018-06-03T00:50:43.600Z,0
2018-06-03T00:51:24.018Z,0
2018-06-03T00:52:04.442Z,0
2018-06-03T00:52:44.834Z,0
2018-06-03T00:53:25.277Z,0
2018-06-03T00:54:05.637Z,0
2018-06-03T00:54:46.090Z,0
2018-06-03T00:55:26.465Z,0
2018-06-03T00:56:06.854Z,0
2018-06-03T00:56:47.251Z,0
2018-06-03T00:57:27.678Z,0
2018-06-03T00:58:08.072Z,0
2018-06-03T00:58:48.494Z,0
2018-06-03T00:59:28.898Z,0
2018-06-03T01:00:09.272Z,0
2018-06-03T01:00:49.689Z,0
2018-06-03T01:01:30.119Z,0
2018-06-03T01:02:10.546Z,0
2018-06-03T01:02:50.970Z,0
2018-06-03T01:03:31.353Z,0
2018-06-03T01:04:11.749Z,0
2018-06-03T01:04:52.121Z,0
2018-06-03T01:05:32.545Z,0
2018-06-03T01:06:12.953Z,0
2018-06-03T01:06:53.322Z,0
2018-06-03T01:07:33.784Z,0
2018-06-03T01:08:14.154Z,0
2018-06-03T01:08:54.560Z,0
2018-06-03T01:09:35.009Z,0
2018-06-03T01:10:15.456Z,0
2018-06-03T01:10:55.820Z,0
2018-06-03T01:11:36.328Z,0
2018-06-03T01:12:16.711Z,0
2018-06-03T01:12:57.107Z,0
2018-06-03T01:13:37.496Z,0
2018-06-03T01:14:17.931Z,0
2018-06-03T01:14:58.317Z,0
2018-06-03T01:15:38.738Z,0
2018-06-03T01:16:19.138Z,0
2018-06-03T01:16:59.525Z,0
2018-06-03T01:17:39.926Z,0
2018-06-03T01:18:20.365Z,0
2018-06-03T01:19:00.731Z,0
2018-06-03T01:19:41.161Z,0
2018-06-03T01:20:21.593Z,0
2018-06-03T01:21:01.950Z,0
2018-06-03T01:21:42.368Z,0
2018-06-03T01:22:22.766Z,0
2018-06-03T01:23:03.131Z,0
2018-06-03T01:23:43.534Z,0
2018-06-03T01:24:23.899Z,0
2018-06-03T01:25:04.326Z,0
2018-06-03T01:25:44.733Z,0
2018-06-03T01:26:25.146Z,0
2018-06-03T01:27:05.529Z,0
2018-06-03T01:27:45.971Z,0
2018-06-03T01:28:26.353Z,0
2018-06-03T01:29:06.749Z,0
2018-06-03T01:29:47.143Z,0
2018-06-03T01:30:27.524Z,0
2018-06-03T01:31:07.951Z,0
2018-06-03T01:31:48.363Z,0
2018-06-03T01:32:28.736Z,0
2018-06-03T01:33:09.217Z,0
2018-06-03T01:33:49.630Z,0
2018-06-03T01:34:30.012Z,0
2018-06-03T01:35:10.439Z,0
2018-06-03T01:35:50.813Z,0
2018-06-03T01:36:31.216Z,0
2018-06-03T01:37:11.671Z,0
2018-06-03T01:37:52.051Z,0
2018-06-03T01:38:32.463Z,0
2018-06-03T01:39:12.905Z,0
2018-06-03T01:39:53.301Z,0
2018-06-03T01:40:33.676Z,0
2018-06-03T01:41:14.076Z,0
2018-06-03T01:41:54.448Z,0
2018-06-03T01:42:34.884Z,0
2018-06-03T01:43:15.303Z,0
2018-06-03T01:43:55.674Z,0
2018-06-03T01:44:36.054Z,0
2018-06-03T01:45:16.428Z,0
2018-06-03T01:45:56.906Z,0
2018-06-03T01:46:37.272Z,0
2018-06-03T01:47:17.737Z,0
2018-06-03T01:47:58.114Z,0
2018-06-03T01:48:38.537Z,0
2018-06-03T01:49:18.942Z,0
2018-06-03T01:49:59.384Z,0
2018-06-03T01:50:39.805Z,0
2018-06-03T01:51:20.136Z,0
2018-06-03T01:52:00.560Z,0
2018-06-03T01:52:41.004Z,0
2018-06-03T01:53:21.387Z,0
2018-06-03T01:54:01.786Z,0
2018-06-03T01:54:42.163Z,0
2018-06-03T01:55:22.608Z,0
2018-06-03T01:56:03.005Z,0
2018-06-03T01:56:43.412Z,0
2018-06-03T01:57:23.791Z,0
2018-06-03T01:58:04.254Z,0
2018-06-03T01:58:44.638Z,0
2018-06-03T01:59:25.094Z,0
2018-06-03T02:00:05.512Z,0
2018-06-03T02:00:45.878Z,0
2018-06-03T02:01:26.263Z,0
2018-06-03T02:02:06.727Z,0
2018-06-03T02:02:47.134Z,0
2018-06-03T02:03:27.590Z,0
2018-06-03T02:04:07.912Z,0
2018-06-03T02:04:48.325Z,0
2018-06-03T02:05:28.710Z,0
2018-06-03T02:06:09.122Z,0
2018-06-03T02:06:49.553Z,0
2018-06-03T02:07:29.933Z,0
2018-06-03T02:08:10.365Z,0
2018-06-03T02:08:50.768Z,0
2018-06-03T02:09:31.175Z,0
2018-06-03T02:10:11.581Z,0
2018-06-03T02:10:51.990Z,0
2018-06-03T02:11:32.379Z,0
2018-06-03T02:12:12.792Z,0
2018-06-03T02:12:53.190Z,0
2018-06-03T02:13:33.560Z,0
2018-06-03T02:14:13.987Z,0
2018-06-03T02:14:54.420Z,0
2018-06-03T02:15:34.800Z,0
2018-06-03T02:16:15.155Z,0
2018-06-03T02:16:55.563Z,0
2018-06-03T02:17:35.974Z,0
2018-06-03T02:18:16.397Z,0
2018-06-03T02:18:56.801Z,0
2018-06-03T02:19:37.167Z,0
2018-06-03T02:20:17.633Z,0
2018-06-03T02:20:57.952Z,0
2018-06-03T02:21:38.396Z,0
2018-06-03T02:22:18.810Z,0
2018-06-03T02:22:59.180Z,0
2018-06-03T02:23:39.570Z,0
2018-06-03T02:24:20.020Z,0
2018-06-03T02:25:00.459Z,0
2018-06-03T02:25:40.825Z,0
2018-06-03T02:26:21.223Z,0
2018-06-03T02:27:01.626Z,0
2018-06-03T02:27:42.022Z,0
2018-06-03T02:28:22.403Z,0
2018-06-03T02:29:02.803Z,0
2018-06-03T02:29:43.213Z,0
2018-06-03T02:30:23.580Z,0
2018-06-03T02:31:04.007Z,0
2018-06-03T02:31:44.408Z,0
2018-06-03T02:32:24.836Z,0
2018-06-03T02:33:05.256Z,0
2018-06-03T02:33:45.674Z,0
2018-06-03T02:34:26.075Z,0
2018-06-03T02:35:06.497Z,0
2018-06-03T02:35:47.439Z,0
2018-06-03T02:36:28.123Z,0
2018-06-03T02:37:08.536Z,0
2018-06-03T02:37:48.894Z,0
2018-06-03T02:38:29.267Z,0
2018-06-03T02:39:09.689Z,0
2018-06-03T02:39:50.094Z,0
2018-06-03T02:40:30.532Z,0
2018-06-03T02:41:10.904Z,0
2018-06-03T02:41:51.285Z,0
2018-06-03T02:42:31.743Z,0
2018-06-03T02:43:12.111Z,0
2018-06-03T02:43:52.521Z,0
2018-06-03T02:44:32.927Z,0
2018-06-03T02:45:13.356Z,0
2018-06-03T02:45:53.730Z,0
2018-06-03T02:46:34.100Z,0
2018-06-03T02:47:14.500Z,0
2018-06-03T02:47:54.895Z,0
2018-06-03T02:48:35.284Z,0
2018-06-03T02:49:15.732Z,0
2018-06-03T02:49:56.148Z,0
2018-06-03T02:50:36.506Z,0
2018-06-03T02:51:16.903Z,0
2018-06-03T02:51:57.315Z,0
2018-06-03T02:52:37.734Z,0
2018-06-03T02:53:18.117Z,0
2018-06-03T02:53:58.525Z,0
2018-06-03T02:54:38.916Z,0
2018-06-03T02:55:19.347Z,0
2018-06-03T02:55:59.755Z,0
2018-06-03T02:56:40.120Z,0
2018-06-03T02:57:20.570Z,0
2018-06-03T02:58:00.923Z,0
2018-06-03T02:58:41.321Z,0
2018-06-03T02:59:21.756Z,0
2018-06-03T03:00:02.167Z,0
2018-06-03T03:00:42.498Z,0
2018-06-03T03:01:22.924Z,0
2018-06-03T03:02:03.304Z,0
2018-06-03T03:02:43.748Z,0
2018-06-03T03:03:24.158Z,0
2018-06-03T03:04:04.569Z,0
2018-06-03T03:04:44.946Z,0
2018-06-03T03:05:25.289Z,0
2018-06-03T03:06:05.727Z,0
2018-06-03T03:06:46.131Z,0
2018-06-03T03:07:26.531Z,0
2018-06-03T03:08:06.936Z,0
2018-06-03T03:08:47.330Z,0
2018-06-03T03:09:44.280Z,0
2018-06-03T03:12:56.188Z,0
2018-06-03T03:13:36.591Z,0
2018-06-03T03:14:17.025Z,0
2018-06-03T03:14:57.348Z,0
2018-06-03T03:15:37.801Z,0
2018-06-03T03:16:18.188Z,0
2018-06-03T03:16:58.598Z,0
2018-06-03T03:17:39.056Z,0
2018-06-03T03:18:19.457Z,0
2018-06-03T03:18:59.838Z,0
2018-06-03T03:19:40.221Z,0
2018-06-03T03:20:20.647Z,0
2018-06-03T03:21:01.061Z,0
2018-06-03T03:21:41.463Z,0
2018-06-03T03:22:21.807Z,0
2018-06-03T03:23:02.287Z,0
2018-06-03T03:23:42.646Z,0
2018-06-03T03:24:22.990Z,0
2018-06-03T03:25:03.414Z,0
2018-06-03T03:25:43.849Z,0
2018-06-03T03:26:24.215Z,0
2018-06-03T03:27:04.631Z,0
2018-06-03T03:27:45.073Z,0
2018-06-03T03:28:25.438Z,0
2018-06-03T03:29:05.926Z,0
2018-06-03T03:29:46.295Z,0
2018-06-03T03:30:26.688Z,0
2018-06-03T03:31:07.085Z,0
2018-06-03T03:31:47.488Z,0
2018-06-03T03:32:27.923Z,0
2018-06-03T03:33:08.303Z,0
2018-06-03T03:33:48.729Z,0
2018-06-03T03:34:29.087Z,0
2018-06-03T03:35:09.500Z,0
2018-06-03T03:35:49.930Z,0
2018-06-03T03:36:35.987Z,0
2018-06-03T03:37:16.426Z,0
2018-06-03T03:37:56.984Z,0
2018-06-03T03:38:37.350Z,0
2018-06-03T03:39:17.740Z,0
2018-06-03T03:40:03.889Z,0
2018-06-03T03:45:25.509Z,5
2018-06-03T03:46:14.457Z,5
2018-06-03T03:47:04.567Z,5
2018-06-03T03:47:54.462Z,5
2018-06-03T03:48:43.483Z,5
2018-06-03T03:49:32.450Z,5
2018-06-03T03:50:18.519Z,5
2018-06-03T03:50:58.886Z,5
2018-06-03T03:51:39.335Z,5
2018-06-03T03:52:19.684Z,5
2018-06-03T03:53:00.134Z,5
2018-06-03T03:53:40.503Z,5
2018-06-03T03:54:20.919Z,5
2018-06-03T03:55:01.352Z,5
2018-06-03T03:55:41.720Z,5
2018-06-03T03:56:22.163Z,5
2018-06-03T03:57:02.547Z,5
2018-06-03T03:57:42.988Z,5
2018-06-03T03:58:23.325Z,5
2018-06-03T03:59:03.781Z,5
2018-06-03T03:59:44.142Z,10
2018-06-03T04:00:24.548Z,10
2018-06-03T04:01:04.899Z,10
2018-06-03T04:01:45.286Z,10
2018-06-03T04:02:25.693Z,10
2018-06-03T04:03:06.122Z,10
2018-06-03T04:03:46.577Z,10
2018-06-03T04:42:14.681Z,45
2018-06-03T04:42:55.083Z,45
2018-06-03T04:43:35.501Z,45
2018-06-03T04:44:15.928Z,45
2018-06-03T04:44:56.312Z,45
2018-06-03T04:45:36.670Z,45
2018-06-03T04:46:17.096Z,45
2018-06-03T04:46:57.513Z,50
2018-06-03T04:47:37.925Z,55
2018-06-03T04:48:18.314Z,55
2018-06-03T04:48:58.691Z,60
2018-06-03T04:49:39.082Z,60
2018-06-03T04:50:19.502Z,60
2018-06-03T04:50:59.984Z,60
2018-06-03T04:51:40.401Z,60
2018-06-03T04:52:20.774Z,65
2018-06-03T04:53:01.185Z,65
2018-06-03T04:53:41.578Z,65
2018-06-03T04:54:21.988Z,70
2018-06-03T04:55:02.433Z,70
2018-06-03T04:55:42.837Z,70
2018-06-03T04:56:23.257Z,90
2018-06-03T04:57:03.649Z,105
2018-06-03T04:57:44.025Z,105
2018-06-03T04:58:24.498Z,105
2018-06-03T04:59:04.869Z,110
2018-06-03T04:59:45.246Z,115
2018-06-03T05:00:25.700Z,115
2018-06-03T05:01:06.091Z,115
2018-06-03T05:01:46.545Z,120
2018-06-03T05:02:26.957Z,125
2018-06-03T05:03:07.313Z,130
2018-06-03T05:03:47.720Z,135
2018-06-03T05:04:28.149Z,140
2018-06-03T05:05:08.551Z,145
2018-06-03T05:05:48.959Z,150
2018-06-03T05:06:29.452Z,150
2018-06-03T05:07:09.750Z,150
2018-06-03T05:07:50.147Z,155
2018-06-03T05:08:30.558Z,155
2018-06-03T05:09:11.016Z,155
2018-06-03T05:09:51.366Z,155
2018-06-03T05:10:31.780Z,165
2018-06-03T05:11:12.200Z,155
2018-06-03T05:11:52.622Z,160
2018-06-03T05:12:32.989Z,165
2018-06-03T05:13:13.432Z,165
2018-06-03T05:13:53.799Z,175
2018-06-03T05:14:34.262Z,175
2018-06-03T05:15:14.674Z,175
2018-06-03T05:15:55.048Z,175
2018-06-03T05:16:35.421Z,170
2018-06-03T05:17:15.836Z,175
2018-06-03T05:17:56.280Z,175
2018-06-03T05:18:36.769Z,180
2018-06-03T05:19:17.097Z,185
2018-06-03T05:19:57.557Z,185
2018-06-03T05:20:37.884Z,185
2018-06-03T05:21:18.296Z,190
2018-06-03T05:21:58.724Z,190
2018-06-03T05:22:39.119Z,195
2018-06-03T05:23:19.529Z,195
2018-06-03T05:24:00.018Z,190
2018-06-03T05:24:40.390Z,190
2018-06-03T05:25:20.780Z,190
2018-06-03T05:26:01.124Z,190
2018-06-03T05:26:41.564Z,190
2018-06-03T05:27:21.979Z,195
2018-06-03T05:28:02.352Z,200
2018-06-03T05:28:42.764Z,200
2018-06-03T05:29:23.205Z,205
2018-06-03T05:30:03.605Z,205
2018-06-03T05:30:43.994Z,210
2018-06-03T05:31:24.439Z,210
2018-06-03T05:32:04.856Z,215
2018-06-03T05:32:45.287Z,215
2018-06-03T05:33:25.630Z,215
2018-06-03T05:34:06.044Z,220
2018-06-03T05:34:46.466Z,220
2018-06-03T05:35:26.912Z,215
2018-06-03T05:36:07.315Z,205
2018-06-03T05:36:47.729Z,195
2018-06-03T05:37:28.093Z,195
2018-06-03T05:38:08.544Z,180
2018-06-03T05:38:48.939Z,175
2018-06-03T05:39:29.352Z,175
2018-06-03T05:40:09.763Z,175
2018-06-03T05:40:50.213Z,180
2018-06-03T05:41:30.616Z,185
2018-06-03T05:42:11.008Z,195
2018-06-03T05:42:51.407Z,200
2018-06-03T05:43:31.867Z,220
2018-06-03T05:44:12.268Z,220
2018-06-03T05:44:52.656Z,225
2018-06-03T05:45:33.047Z,220
2018-06-03T05:46:13.497Z,215
2018-06-03T05:46:53.988Z,210
2018-06-03T05:47:34.422Z,205
2018-06-03T05:48:14.822Z,195
2018-06-03T05:48:55.264Z,185
2018-06-03T05:49:35.613Z,185
2018-06-03T05:50:16.028Z,200
2018-06-03T05:50:56.483Z,225
2018-06-03T05:51:36.882Z,240
2018-06-03T05:52:17.354Z,250
2018-06-03T05:52:57.720Z,255
2018-06-03T05:53:38.119Z,255
2018-06-03T05:54:18.553Z,250
2018-06-03T05:54:58.970Z,255
2018-06-03T05:55:39.351Z,240
2018-06-03T05:56:19.779Z,230
2018-06-03T05:57:00.149Z,240
2018-06-03T05:57:40.529Z,250
2018-06-03T05:58:21.225Z,280
2018-06-03T05:59:01.614Z,305
2018-06-03T05:59:41.972Z,320
2018-06-03T06:00:22.376Z,325
2018-06-03T06:01:02.833Z,335
2018-06-03T06:01:43.230Z,340
2018-06-03T06:02:23.645Z,350
2018-06-03T06:03:04.060Z,370
2018-06-03T06:03:44.435Z,385
2018-06-03T06:04:24.813Z,395
2018-06-03T06:05:05.240Z,410
2018-06-03T06:05:45.652Z,425
2018-06-03T06:06:26.069Z,435
2018-06-03T06:07:06.482Z,445
2018-06-03T06:07:46.924Z,450
2018-06-03T06:08:27.352Z,450
2018-06-03T06:09:07.780Z,445
2018-06-03T06:09:48.122Z,455
2018-06-03T06:10:28.582Z,460
2018-06-03T06:11:08.980Z,465
2018-06-03T06:11:49.371Z,465
2018-06-03T06:12:29.764Z,480
2018-06-03T06:13:10.141Z,585
2018-06-03T06:13:50.555Z,700
2018-06-03T06:14:30.984Z,815
2018-06-03T06:15:11.451Z,835
2018-06-03T06:15:51.890Z,765
2018-06-03T06:16:32.239Z,685
2018-06-03T06:17:12.671Z,630
2018-06-03T06:17:53.134Z,610
2018-06-03T06:18:33.549Z,610
2018-06-03T06:19:13.956Z,635
2018-06-03T06:19:54.386Z,655
2018-06-03T06:20:34.799Z,670
2018-06-03T06:21:24.984Z,690
2018-06-03T06:22:05.367Z,700
2018-06-03T06:22:45.837Z,715
2018-06-03T06:23:26.250Z,715
2018-06-03T06:24:06.576Z,715
2018-06-03T06:24:46.986Z,720
2018-06-03T06:25:27.394Z,730
2018-06-03T06:26:07.827Z,735
2018-06-03T06:26:48.225Z,740
2018-06-03T06:27:28.602Z,765
2018-06-03T06:28:09.042Z,795
2018-06-03T06:28:49.416Z,820
2018-06-03T06:29:29.874Z,840
2018-06-03T06:30:10.235Z,840
2018-06-03T06:30:50.649Z,865
2018-06-03T06:31:31.060Z,875
2018-06-03T06:32:11.487Z,900
2018-06-03T06:32:51.917Z,920
2018-06-03T06:33:39.606Z,920
2018-06-03T06:34:20.037Z,945
2018-06-03T06:35:00.459Z,980
2018-06-03T06:35:40.897Z,1000
2018-06-03T06:36:21.336Z,1010
2018-06-03T06:37:01.739Z,1005
2018-06-03T06:37:42.148Z,1025
2018-06-03T06:38:22.543Z,1050
2018-06-03T06:39:02.972Z,1065
2018-06-03T06:39:43.362Z,1090
2018-06-03T06:40:23.747Z,1085
2018-06-03T06:41:04.193Z,1085
2018-06-03T06:41:44.595Z,1095
2018-06-03T06:42:25.005Z,1100
2018-06-03T06:43:05.453Z,1095
2018-06-03T06:43:45.851Z,1075
2018-06-03T06:44:26.264Z,1055
2018-06-03T06:45:06.684Z,985
2018-06-03T06:45:47.139Z,980
2018-06-03T06:46:27.482Z,1025
2018-06-03T06:47:07.989Z,1080
2018-06-03T06:47:48.685Z,1095
2018-06-03T06:48:43.173Z,1075
2018-06-03T06:49:26.232Z,1090
2018-06-03T06:50:06.655Z,1085
2018-06-03T06:50:47.066Z,935
2018-06-03T06:51:27.471Z,740
2018-06-03T06:52:07.937Z,600
2018-06-03T06:52:58.501Z,560
2018-06-03T06:53:46.468Z,545
2018-06-03T06:54:32.763Z,530
2018-06-03T06:55:13.169Z,525
2018-06-03T06:55:53.623Z,535
2018-06-03T06:56:34.010Z,545
2018-06-03T06:59:19.676Z,570
2018-06-03T07:00:00.149Z,575
2018-06-03T07:00:40.520Z,575
2018-06-03T07:01:20.953Z,575
2018-06-03T07:02:01.418Z,565
2018-06-03T07:02:41.855Z,575
2018-06-03T07:03:22.265Z,570
2018-06-03T07:04:02.717Z,580
2018-06-03T07:04:43.141Z,580
2018-06-03T07:05:23.537Z,585
2018-06-03T07:06:03.934Z,585
2018-06-03T07:06:44.413Z,570
2018-06-03T07:07:24.820Z,565
2018-06-03T07:08:05.174Z,575
2018-06-03T07:08:45.624Z,575
2018-06-03T07:09:26.035Z,585
2018-06-03T07:10:06.429Z,595
2018-06-03T07:10:46.870Z,585
2018-06-03T07:11:27.255Z,575
2018-06-03T07:12:07.662Z,570
2018-06-03T07:12:48.097Z,560
2018-06-03T07:13:28.555Z,555
2018-06-03T07:14:08.971Z,540
2018-06-03T07:14:49.444Z,545
2018-06-03T07:15:29.846Z,540
2018-06-03T07:16:10.328Z,535
2018-06-03T07:16:50.652Z,540
2018-06-03T07:17:31.203Z,555
2018-06-03T07:18:11.638Z,545
2018-06-03T07:18:52.071Z,535
2018-06-03T07:19:32.487Z,520
2018-06-03T07:20:12.898Z,515
2018-06-03T07:20:53.347Z,510
2018-06-03T07:21:33.719Z,510
2018-06-03T07:22:14.139Z,495
2018-06-03T07:22:54.567Z,470
2018-06-03T07:23:34.988Z,435
2018-06-03T07:24:15.407Z,400
2018-06-03T07:24:55.816Z,395
2018-06-03T07:25:36.249Z,395
2018-06-03T07:26:16.662Z,375
2018-06-03T07:26:57.110Z,345
2018-06-03T07:27:37.560Z,330
2018-06-03T07:28:17.935Z,315
2018-06-03T07:28:58.358Z,305
2018-06-03T07:29:38.785Z,300
2018-06-03T07:30:19.182Z,290
2018-06-03T07:30:59.643Z,285
2018-06-03T07:31:40.076Z,280
2018-06-03T07:32:20.481Z,275
2018-06-03T07:33:00.896Z,270
2018-06-03T07:33:41.342Z,265
2018-06-03T07:34:21.730Z,265
2018-06-03T07:35:02.159Z,260
2018-06-03T07:35:42.541Z,255
2018-06-03T07:36:22.961Z,250
2018-06-03T07:37:03.396Z,245
2018-06-03T07:37:43.787Z,240
2018-06-03T07:38:24.225Z,235
2018-06-03T07:39:04.705Z,230
2018-06-03T07:39:45.065Z,230
2018-06-03T07:40:25.478Z,225
2018-06-03T07:41:06.517Z,220
2018-06-03T07:41:47.118Z,220
2018-06-03T07:42:27.513Z,215
2018-06-03T07:43:07.907Z,215
2018-06-03T07:43:48.301Z,210
2018-06-03T07:44:28.825Z,210
2018-06-03T07:45:09.234Z,205
2018-06-03T07:45:49.664Z,205
2018-06-03T07:46:30.015Z,200
2018-06-03T07:47:10.517Z,205
2018-06-03T07:47:50.889Z,200
2018-06-03T07:48:31.361Z,200
2018-06-03T07:49:11.788Z,195
2018-06-03T07:49:52.184Z,195
2018-06-03T07:50:32.635Z,190
2018-06-03T07:51:13.066Z,190
2018-06-03T07:51:53.490Z,190
2018-06-03T07:52:33.943Z,190
2018-06-03T07:53:14.294Z,190
2018-06-03T07:53:54.702Z,185
2018-06-03T07:54:35.148Z,180
2018-06-03T07:55:15.560Z,180
2018-06-03T07:55:56.014Z,150
2018-06-03T07:56:36.530Z,140
2018-06-03T07:57:16.959Z,140
2018-06-03T07:57:57.360Z,140
2018-06-03T07:58:37.740Z,155
2018-06-03T07:59:18.168Z,175
2018-06-03T07:59:58.568Z,175
2018-06-03T08:00:39.001Z,175
2018-06-03T08:01:19.390Z,170
2018-06-03T08:01:59.825Z,170
2018-06-03T08:02:40.243Z,170
2018-06-03T08:03:20.634Z,165
2018-06-03T08:04:01.026Z,165
2018-06-03T08:04:41.454Z,160
2018-06-03T08:05:21.858Z,160
2018-06-03T08:06:02.379Z,160
2018-06-03T08:06:42.684Z,160
2018-06-03T08:07:23.089Z,155
2018-06-03T08:08:03.492Z,135
2018-06-03T08:08:43.934Z,125
2018-06-03T08:09:24.365Z,135
2018-06-03T08:10:04.778Z,140
2018-06-03T08:10:45.286Z,145
2018-06-03T08:11:25.621Z,130
2018-06-03T08:12:06.042Z,135
2018-06-03T08:12:46.459Z,125
2018-06-03T08:13:26.868Z,130
2018-06-03T08:14:07.306Z,125
2018-06-03T08:14:47.712Z,125
2018-06-03T08:15:28.122Z,140
2018-06-03T08:16:08.561Z,135
2018-06-03T08:16:48.994Z,130
2018-06-03T08:17:29.429Z,135
2018-06-03T08:18:10.008Z,130
2018-06-03T08:18:50.572Z,140
2018-06-03T08:19:30.946Z,135
2018-06-03T08:20:11.361Z,135
2018-06-03T08:20:51.740Z,135
2018-06-03T08:21:32.184Z,140
2018-06-03T08:22:12.621Z,140
2018-06-03T08:22:53.140Z,145
2018-06-03T08:23:33.467Z,150
2018-06-03T08:24:13.905Z,150
2018-06-03T08:24:54.284Z,145
2018-06-03T08:25:34.699Z,140
2018-06-03T08:26:15.099Z,135
2018-06-03T08:26:55.488Z,135
2018-06-03T08:27:35.917Z,130
2018-06-03T08:28:16.368Z,130
2018-06-03T08:28:56.736Z,100
2018-06-03T08:29:37.167Z,100
2018-06-03T08:30:17.652Z,100
2018-06-03T08:30:58.012Z,100
2018-06-03T08:31:38.438Z,105
2018-06-03T08:32:18.862Z,105
2018-06-03T08:32:59.288Z,105
2018-06-03T08:33:39.647Z,110
2018-06-03T08:34:20.072Z,115
2018-06-03T08:35:00.476Z,125
2018-06-03T08:35:40.918Z,135
2018-06-03T08:36:21.341Z,130
2018-06-03T08:37:01.823Z,125
2018-06-03T08:37:42.191Z,130
2018-06-03T08:38:22.610Z,125
2018-06-03T08:39:03.014Z,110
2018-06-03T08:39:43.423Z,120
2018-06-03T08:40:23.828Z,130
2018-06-03T08:41:04.250Z,130
2018-06-03T08:41:44.656Z,135
2018-06-03T08:42:25.082Z,130
2018-06-03T08:43:05.452Z,125
2018-06-03T08:43:45.911Z,130
2018-06-03T08:44:26.315Z,120
2018-06-03T08:45:06.718Z,120
2018-06-03T08:45:47.175Z,125
2018-06-03T08:46:27.532Z,115
2018-06-03T08:47:07.994Z,115
2018-06-03T08:47:48.355Z,120
2018-06-03T08:48:28.774Z,125
2018-06-03T08:49:09.214Z,130
2018-06-03T08:49:49.698Z,125
2018-06-03T08:50:30.071Z,130
2018-06-03T08:51:10.535Z,125
2018-06-03T08:51:50.915Z,115
2018-06-03T08:52:31.318Z,115
2018-06-03T08:53:11.803Z,110
2018-06-03T08:53:52.148Z,110
2018-06-03T08:54:32.613Z,110
2018-06-03T08:55:13.001Z,105
2018-06-03T08:55:53.429Z,100
2018-06-03T08:56:33.812Z,100
2018-06-03T08:57:14.198Z,100
2018-06-03T08:57:54.640Z,100
2018-06-03T08:58:35.046Z,100
2018-06-03T08:59:15.509Z,105
2018-06-03T08:59:55.942Z,105
2018-06-03T09:00:36.314Z,105
2018-06-03T09:01:16.733Z,110
2018-06-03T09:01:57.156Z,110
2018-06-03T09:02:37.582Z,120
2018-06-03T09:03:18.048Z,125
2018-06-03T09:03:58.445Z,125
2018-06-03T09:04:38.803Z,120
2018-06-03T09:05:19.223Z,110
2018-06-03T09:05:59.649Z,80
2018-06-03T09:06:40.074Z,80
2018-06-03T09:07:20.529Z,80
2018-06-03T09:08:00.898Z,75
2018-06-03T09:08:41.322Z,75
2018-06-03T09:09:21.727Z,75
2018-06-03T09:10:02.137Z,80
2018-06-03T09:10:42.618Z,80
2018-06-03T09:11:23.018Z,85
2018-06-03T09:12:03.475Z,90
2018-06-03T09:12:43.858Z,85
2018-06-03T09:13:24.270Z,90
2018-06-03T09:14:04.714Z,90
2018-06-03T09:14:45.141Z,90
2018-06-03T09:15:25.550Z,90
2018-06-03T09:16:06.021Z,95
2018-06-03T09:16:46.381Z,110
2018-06-03T09:17:26.781Z,115
2018-06-03T09:18:07.207Z,115
2018-06-03T09:18:47.619Z,90
2018-06-03T09:19:28.032Z,110
2018-06-03T09:20:08.487Z,100
2018-06-03T09:20:48.876Z,85
2018-06-03T09:21:29.306Z,115
2018-06-03T09:22:09.693Z,85
2018-06-03T09:22:50.142Z,80
2018-06-03T09:23:30.554Z,80
2018-06-03T09:24:10.939Z,80
2018-06-03T09:24:51.363Z,85
2018-06-03T10:42:59.862Z,65
2018-06-03T10:43:40.357Z,65
2018-06-03T10:44:20.777Z,65
2018-06-03T10:45:01.207Z,65
2018-06-03T10:45:41.606Z,70
2018-06-03T10:46:21.994Z,70
2018-06-03T10:47:02.414Z,70
2018-06-03T10:47:42.793Z,85
2018-06-03T10:48:23.217Z,90
2018-06-03T10:49:03.610Z,90
2018-06-03T10:49:43.986Z,90
2018-06-03T10:50:24.399Z,90
2018-06-03T10:51:04.857Z,90
2018-06-03T10:51:45.266Z,90
2018-06-03T10:52:25.654Z,90
2018-06-03T10:53:06.030Z,90
2018-06-03T10:53:46.427Z,90
2018-06-03T10:54:26.912Z,90
2018-06-03T10:55:07.264Z,90
2018-06-03T10:55:47.647Z,75
2018-06-03T10:56:28.064Z,80
2018-06-03T10:57:08.448Z,90
2018-06-03T10:57:48.851Z,85
2018-06-03T10:58:29.313Z,65
2018-06-03T10:59:09.728Z,65
2018-06-03T10:59:50.191Z,80
2018-06-03T11:00:30.541Z,65
2018-06-03T11:01:10.991Z,70
2018-06-03T11:01:51.416Z,65
2018-06-03T11:02:31.812Z,60
2018-06-03T11:03:12.256Z,60
2018-06-03T11:03:52.666Z,60
2018-06-03T11:04:33.085Z,60
2018-06-03T11:05:13.479Z,60
2018-06-03T11:05:53.945Z,60
2018-06-03T11:06:34.371Z,60
2018-06-03T11:07:14.774Z,60
2018-06-03T11:07:55.159Z,60
2018-06-03T11:08:35.571Z,55
2018-06-03T11:09:16.149Z,55
2018-06-03T11:09:56.526Z,55
2018-06-03T11:10:36.961Z,55
2018-06-03T11:11:17.418Z,55
2018-06-03T11:11:57.788Z,55
2018-06-03T11:12:38.197Z,55
2018-06-03T11:13:18.650Z,55
2018-06-03T11:14:13.710Z,55
2018-06-03T11:14:54.157Z,55
2018-06-03T11:15:34.547Z,55
2018-06-03T11:16:14.916Z,55
2018-06-03T11:16:55.324Z,55
2018-06-03T11:17:35.764Z,55
2018-06-03T11:18:16.157Z,55
2018-06-03T11:18:56.544Z,55
2018-06-03T11:19:37.016Z,55
2018-06-03T11:20:19.743Z,55
2018-06-03T11:21:00.145Z,55
2018-06-03T11:21:40.543Z,55
2018-06-03T11:22:20.899Z,55
2018-06-03T11:23:01.328Z,55
2018-06-03T11:23:41.737Z,50
2018-06-03T11:24:22.099Z,50
2018-06-03T11:25:02.541Z,50
2018-06-03T11:25:42.897Z,50
2018-06-03T11:26:23.324Z,50
2018-06-03T11:27:03.708Z,50
2018-06-03T11:27:44.172Z,55
2018-06-03T11:28:24.563Z,55
2018-06-03T11:29:04.937Z,55
2018-06-03T11:29:45.366Z,55
2018-06-03T11:30:25.761Z,55
2018-06-03T11:31:06.216Z,55
2018-06-03T11:31:46.625Z,55
2018-06-03T11:32:27.045Z,60
2018-06-03T11:33:07.511Z,60
2018-06-03T11:33:47.929Z,60
2018-06-03T11:34:28.320Z,65
2018-06-03T11:35:08.691Z,80
2018-06-03T11:35:49.101Z,90
2018-06-03T11:36:29.503Z,90
2018-06-03T11:37:09.952Z,90
2018-06-03T11:37:50.309Z,90
2018-06-03T11:38:30.737Z,90
2018-06-03T11:39:11.139Z,90
2018-06-03T11:39:51.527Z,90
2018-06-03T11:40:32.000Z,90
2018-06-03T11:41:12.351Z,90
2018-06-03T11:41:52.767Z,85